Terminal Aerodrome Forecast
Issued by NWS

Home | Current Version | Previous Version | Text Only | Print | Product List | Glossary On
Versions: 1 2 3 4 5 6 7 8 9 10 11 12 13 14 15 16
555
FTUS43 KAPX 192337
TAFPLN
TAF
KPLN 192337Z 2000/2024 10009KT P6SM SCT030 SCT250
     FM200300 12005KT P6SM SCT045
     FM200500 12005KT P6SM BKN015
     FM200800 11005KT 2SM BR BKN003
     FM201200 12005KT P6SM BKN008
     FM201600 15007KT P6SM SCT030=

USA.gov is the U.S. government's official web portal to all federal, state and local government web resources and services.